Time;durP1;ratioP1;P1;durP2;ratioP2;P2;SDS_P1;SDS_P2;PMS_P1;PMS_P2;Temp;Humidity;BMP_temperature;BMP_pressure;BME280_temperature;BME280_humidity;BME280_pressure;Samples;Min_cycle;Max_cycle;Signal;HPM_P1;HPM_P2
2021/12/24 00:00:09;;;;;;;;;38.33;31.00;;;;;;;;5024628;28;46335;-68
2021/12/24 00:02:35;;;;;;;;;35.25;30.50;;;;;;;;5004985;28;45268;-67
2021/12/24 00:05:00;;;;;;;;;37.50;32.00;;;;;;;;5023273;28;45384;-67
2021/12/24 00:07:25;;;;;;;;;28.33;24.33;;;;;;;;5023314;28;45535;-68
2021/12/24 00:09:50;;;;;;;;;40.33;29.33;;;;;;;;5006714;28;47022;-67
2021/12/24 00:12:19;;;;;;;;;32.33;28.67;;;;;;;;5023721;28;45292;-68
2021/12/24 00:14:50;;;;;;;;;35.00;29.00;;;;;;;;5024673;28;45237;-67
2021/12/24 00:17:19;;;;;;;;;26.00;24.00;;;;;;;;5024367;28;45313;-68
2021/12/24 00:20:00;;;;;;;;;34.33;31.00;;;;;;;;5024292;28;46208;-67
2021/12/24 00:23:05;;;;;;;;;31.75;29.75;;;;;;;;5023732;28;45280;-68
2021/12/24 00:36:12;;;;;;;;;35.33;29.00;;;;;;;;5024437;28;45316;-68
2021/12/24 00:38:37;;;;;;;;;37.00;28.00;;;;;;;;5023914;28;45424;-67
2021/12/24 00:41:02;;;;;;;;;39.00;33.67;;;;;;;;5024152;28;45533;-68
2021/12/24 00:43:28;;;;;;;;;35.00;31.67;;;;;;;;5023239;28;45506;-67
2021/12/24 00:45:53;;;;;;;;;33.67;30.67;;;;;;;;5005884;28;45434;-68
2021/12/24 00:48:19;;;;;;;;;27.67;25.67;;;;;;;;5023718;28;45392;-67
2021/12/24 00:55:57;;;;;;;;;38.00;30.33;;;;;;;;5020098;28;45362;-67
2021/12/24 00:58:23;;;;;;;;;35.25;30.25;;;;;;;;5023174;28;45196;-67
2021/12/24 01:00:48;;;;;;;;;44.33;35.33;;;;;;;;5005192;28;47113;-67
2021/12/24 01:03:13;;;;;;;;;33.33;29.67;;;;;;;;5022435;28;45313;-68
2021/12/24 01:05:39;;;;;;;;;31.00;27.67;;;;;;;;5024025;28;45415;-67
2021/12/24 01:08:05;;;;;;;;;32.33;30.00;;;;;;;;5023151;28;45395;-68
2021/12/24 01:10:32;;;;;;;;;35.33;28.67;;;;;;;;5018432;28;45301;-68
2021/12/24 01:12:58;;;;;;;;;28.67;25.67;;;;;;;;5021198;28;45770;-67
2021/12/24 01:15:23;;;;;;;;;32.00;29.25;;;;;;;;5023766;28;45406;-68
2021/12/24 01:20:23;;;;;;;;;34.00;26.75;;;;;;;;5022815;28;46049;-68
2021/12/24 01:25:26;;;;;;;;;35.75;32.50;;;;;;;;5022674;28;45806;-67
2021/12/24 01:38:14;;;;;;;;;38.33;26.00;;;;;;;;5022531;28;45422;-68
2021/12/24 01:41:05;;;;;;;;;31.00;29.67;;;;;;;;5023154;28;45444;-68
2021/12/24 01:43:30;;;;;;;;;34.33;32.33;;;;;;;;5004140;28;45849;-68
2021/12/24 01:45:56;;;;;;;;;29.67;26.00;;;;;;;;5023237;28;45357;-67
2021/12/24 01:48:22;;;;;;;;;34.67;27.00;;;;;;;;5022527;28;45645;-67
2021/12/24 01:50:49;;;;;;;;;35.67;29.67;;;;;;;;5023041;28;45493;-68
2021/12/24 01:53:16;;;;;;;;;28.00;25.00;;;;;;;;5022350;28;45628;-68
2021/12/24 01:55:42;;;;;;;;;30.67;26.00;;;;;;;;5023088;28;45343;-68
2021/12/24 01:58:07;;;;;;;;;31.67;27.67;;;;;;;;5021846;28;45602;-70
2021/12/24 02:00:39;;;;;;;;;29.67;24.33;;;;;;;;5022960;28;45393;-67
2021/12/24 02:03:05;;;;;;;;;28.33;27.00;;;;;;;;5022108;28;45685;-67
2021/12/24 02:05:31;;;;;;;;;28.00;24.00;;;;;;;;5020856;28;45400;-67
2021/12/24 02:07:56;;;;;;;;;32.33;25.67;;;;;;;;5022407;28;45482;-68
2021/12/24 02:10:22;;;;;;;;;28.00;25.33;;;;;;;;5022590;28;46555;-68
2021/12/24 02:12:48;;;;;;;;;35.00;23.00;;;;;;;;5021372;28;45761;-68
2021/12/24 02:15:33;;;;;;;;;32.67;28.33;;;;;;;;5022977;28;45596;-68
2021/12/24 02:28:45;;;;;;;;;36.00;28.67;;;;;;;;5021408;28;45396;-68
2021/12/24 02:31:16;;;;;;;;;36.50;29.75;;;;;;;;5020438;28;47080;-67
2021/12/24 02:33:41;;;;;;;;;33.33;28.33;;;;;;;;5020998;28;45415;-68
2021/12/24 02:36:07;;;;;;;;;33.00;30.00;;;;;;;;5020468;28;45398;-68
2021/12/24 02:38:32;;;;;;;;;37.67;33.00;;;;;;;;5021307;28;45499;-68
2021/12/24 02:40:57;;;;;;;;;36.00;30.67;;;;;;;;5021721;28;45587;-67
2021/12/24 02:43:24;;;;;;;;;35.33;31.00;;;;;;;;5020652;28;45437;-67
2021/12/24 02:45:52;;;;;;;;;34.67;30.67;;;;;;;;5021660;28;45447;-67
2021/12/24 02:56:17;;;;;;;;;26.67;22.33;;;;;;;;5011680;28;45347;-68
2021/12/24 02:58:45;;;;;;;;;40.67;31.00;;;;;;;;5021543;28;45308;-67
2021/12/24 03:01:12;;;;;;;;;29.67;23.33;;;;;;;;5022217;28;45257;-69
2021/12/24 03:03:37;;;;;;;;;36.33;32.33;;;;;;;;5020880;28;45434;-68
2021/12/24 03:06:03;;;;;;;;;32.33;26.67;;;;;;;;5022018;28;45518;-68
2021/12/24 03:08:29;;;;;;;;;30.33;27.33;;;;;;;;5003893;28;45545;-68
2021/12/24 03:10:55;;;;;;;;;29.00;23.67;;;;;;;;5022083;28;46173;-68
2021/12/24 03:13:22;;;;;;;;;30.00;28.33;;;;;;;;5020651;28;45453;-67
2021/12/24 03:15:50;;;;;;;;;33.33;30.33;;;;;;;;5022206;28;45389;-67
2021/12/24 03:18:22;;;;;;;;;32.00;29.33;;;;;;;;5021189;28;47594;-67
2021/12/24 03:20:47;;;;;;;;;30.67;27.67;;;;;;;;5021842;28;46240;-68
2021/12/24 03:23:33;;;;;;;;;34.67;29.00;;;;;;;;5020580;28;45267;-68
2021/12/24 03:25:57;;;;;;;;;29.67;25.33;;;;;;;;5024712;28;45422;-68
2021/12/24 03:28:23;;;;;;;;;30.33;26.33;;;;;;;;5024191;28;45548;-67
2021/12/24 03:30:48;;;;;;;;;27.33;26.33;;;;;;;;5025344;28;46510;-68
2021/12/24 03:33:13;;;;;;;;;36.67;27.33;;;;;;;;5024338;28;45451;-68
2021/12/24 03:35:38;;;;;;;;;29.33;24.67;;;;;;;;5025470;28;45486;-68
2021/12/24 03:38:04;;;;;;;;;33.33;30.00;;;;;;;;5022904;28;45338;-68
2021/12/24 03:40:29;;;;;;;;;35.67;30.67;;;;;;;;5025161;28;45455;-67
2021/12/24 03:42:54;;;;;;;;;27.33;25.33;;;;;;;;5005007;28;45516;-68
2021/12/24 03:45:26;;;;;;;;;26.00;26.00;;;;;;;;5025065;28;45366;-67
2021/12/24 03:47:59;;;;;;;;;27.00;27.00;;;;;;;;5023103;28;45461;-68
2021/12/24 03:50:37;;;;;;;;;30.33;27.00;;;;;;;;5024419;28;45422;-68
2021/12/24 03:53:06;;;;;;;;;33.33;24.67;;;;;;;;5003058;28;45344;-68
2021/12/24 03:55:31;;;;;;;;;30.33;26.67;;;;;;;;5024873;28;45264;-68
2021/12/24 03:57:56;;;;;;;;;31.00;27.00;;;;;;;;5003326;28;45236;-68
2021/12/24 04:00:24;;;;;;;;;32.67;26.67;;;;;;;;5024502;28;46531;-67
2021/12/24 04:02:49;;;;;;;;;30.67;26.67;;;;;;;;5024202;28;45382;-68
2021/12/24 04:05:14;;;;;;;;;32.67;24.00;;;;;;;;5006615;28;46066;-68
2021/12/24 04:07:40;;;;;;;;;36.00;33.00;;;;;;;;5006630;28;45665;-67
2021/12/24 04:10:16;;;;;;;;;32.33;26.67;;;;;;;;5024482;28;45586;-67
2021/12/24 04:12:42;;;;;;;;;29.00;23.67;;;;;;;;5004366;28;45849;-67
2021/12/24 04:15:07;;;;;;;;;27.67;25.00;;;;;;;;5024498;28;45722;-67
2021/12/24 04:17:36;;;;;;;;;23.00;21.67;;;;;;;;5024029;28;45384;-68
2021/12/24 04:25:30;;;;;;;;;37.67;26.00;;;;;;;;5023572;28;45261;-68
2021/12/24 04:27:58;;;;;;;;;32.67;32.33;;;;;;;;5022747;28;45336;-68
2021/12/24 04:30:28;;;;;;;;;50.25;39.75;;;;;;;;5021109;28;47333;-68
2021/12/24 04:51:22;;;;;;;;;33.50;32.50;;;;;;;;5013521;28;45469;-67
2021/12/24 05:04:37;;;;;;;;;36.00;29.33;;;;;;;;5023604;28;45316;-68
2021/12/24 05:07:11;;;;;;;;;29.00;28.00;;;;;;;;5023336;28;45289;-68
2021/12/24 05:09:40;;;;;;;;;29.33;27.33;;;;;;;;5022696;28;45349;-67
2021/12/24 05:12:06;;;;;;;;;33.00;28.33;;;;;;;;5008854;28;45681;-68
2021/12/24 05:14:31;;;;;;;;;30.33;24.00;;;;;;;;5022521;28;45300;-68
2021/12/24 05:17:17;;;;;;;;;29.00;25.00;;;;;;;;5022185;28;45389;-68
2021/12/24 05:22:30;;;;;;;;;33.67;25.33;;;;;;;;5012604;28;45864;-68
2021/12/24 05:24:55;;;;;;;;;37.00;31.67;;;;;;;;5008870;28;46286;-68
2021/12/24 05:27:21;;;;;;;;;32.33;30.33;;;;;;;;5013570;28;45354;-67
2021/12/24 05:29:46;;;;;;;;;32.67;28.67;;;;;;;;5012901;28;45404;-68
2021/12/24 05:32:11;;;;;;;;;27.67;26.33;;;;;;;;5002333;28;46527;-67
2021/12/24 05:34:36;;;;;;;;;33.67;28.33;;;;;;;;5012946;28;45344;-68
2021/12/24 05:37:02;;;;;;;;;35.00;29.00;;;;;;;;5005242;28;45328;-68
2021/12/24 05:39:28;;;;;;;;;31.00;30.00;;;;;;;;5013024;28;45480;-67
2021/12/24 05:41:54;;;;;;;;;26.67;23.00;;;;;;;;5023101;28;46428;-68
2021/12/24 05:44:19;;;;;;;;;28.33;24.67;;;;;;;;5000964;28;45428;-68
2021/12/24 05:46:45;;;;;;;;;28.00;23.00;;;;;;;;5000565;28;45344;-68
2021/12/24 05:49:11;;;;;;;;;14.67;11.67;;;;;;;;5022544;28;45367;-68
2021/12/24 05:51:36;;;;;;;;;36.00;29.67;;;;;;;;5023334;28;46606;-68
2021/12/24 05:54:02;;;;;;;;;31.00;26.33;;;;;;;;5022292;28;45291;-67
2021/12/24 05:56:27;;;;;;;;;32.00;28.33;;;;;;;;5022946;28;45295;-68
2021/12/24 05:58:52;;;;;;;;;28.00;26.00;;;;;;;;5022744;28;45403;-68
2021/12/24 06:01:17;;;;;;;;;34.33;31.00;;;;;;;;5022351;28;46565;-67
2021/12/24 06:03:43;;;;;;;;;32.67;27.00;;;;;;;;5022202;28;45272;-68
2021/12/24 06:06:08;;;;;;;;;28.67;24.67;;;;;;;;5005277;28;45381;-67
2021/12/24 06:08:33;;;;;;;;;26.33;26.00;;;;;;;;5021383;28;45265;-68
2021/12/24 06:10:58;;;;;;;;;31.33;28.67;;;;;;;;5022489;28;45272;-68
2021/12/24 06:13:25;;;;;;;;;32.67;27.00;;;;;;;;5022137;28;45320;-68
2021/12/24 06:15:51;;;;;;;;;31.00;28.25;;;;;;;;5023243;28;45232;-67
2021/12/24 06:18:27;;;;;;;;;29.67;28.00;;;;;;;;4998910;28;45522;-68
2021/12/24 06:20:53;;;;;;;;;29.75;26.25;;;;;;;;5022491;28;45473;-68
2021/12/24 06:23:21;;;;;;;;;21.00;19.33;;;;;;;;5021560;28;45264;-68
2021/12/24 06:25:47;;;;;;;;;26.33;23.67;;;;;;;;5022590;28;45317;-68
2021/12/24 06:28:12;;;;;;;;;27.00;27.00;;;;;;;;5021746;28;45484;-68
2021/12/24 06:30:39;;;;;;;;;27.33;25.33;;;;;;;;5022788;28;46255;-68
2021/12/24 06:33:04;;;;;;;;;37.33;31.00;;;;;;;;5021724;28;45778;-68
2021/12/24 06:35:29;;;;;;;;;30.00;24.67;;;;;;;;5021490;28;45284;-68
2021/12/24 06:37:56;;;;;;;;;28.00;26.67;;;;;;;;5003193;28;45236;-68
2021/12/24 06:40:21;;;;;;;;;24.00;22.25;;;;;;;;5022505;28;46130;-68
2021/12/24 06:42:47;;;;;;;;;30.67;28.33;;;;;;;;5020053;28;45894;-68
2021/12/24 06:45:12;;;;;;;;;24.67;22.67;;;;;;;;5022447;28;45517;-68
2021/12/24 06:47:37;;;;;;;;;32.67;29.00;;;;;;;;5022120;28;45146;-68
2021/12/24 06:50:03;;;;;;;;;25.00;24.00;;;;;;;;5020995;28;47236;-68
2021/12/24 06:52:28;;;;;;;;;27.00;22.67;;;;;;;;5021552;28;45375;-68
2021/12/24 06:54:54;;;;;;;;;26.00;19.00;;;;;;;;5022379;28;45865;-68
2021/12/24 06:57:20;;;;;;;;;32.33;26.00;;;;;;;;5021824;28;45371;-68
2021/12/24 06:59:45;;;;;;;;;24.67;24.67;;;;;;;;5023138;28;45725;-68
2021/12/24 07:02:11;;;;;;;;;24.00;19.33;;;;;;;;5024810;28;45260;-68
2021/12/24 07:04:36;;;;;;;;;19.67;19.00;;;;;;;;5004599;28;45371;-68
2021/12/24 07:07:01;;;;;;;;;26.00;20.67;;;;;;;;5022896;28;45282;-68
2021/12/24 07:09:27;;;;;;;;;24.00;16.33;;;;;;;;5025308;28;45358;-68
2021/12/24 07:11:52;;;;;;;;;24.33;21.67;;;;;;;;5023999;28;45311;-68
2021/12/24 07:14:17;;;;;;;;;21.00;20.00;;;;;;;;5023430;28;45399;-68
2021/12/24 07:16:43;;;;;;;;;17.00;15.67;;;;;;;;5026117;28;45308;-68
2021/12/24 07:19:08;;;;;;;;;20.00;19.33;;;;;;;;5003478;28;48127;-68
2021/12/24 07:21:35;;;;;;;;;23.33;15.67;;;;;;;;5007572;28;45347;-68
2021/12/24 07:24:01;;;;;;;;;18.33;16.67;;;;;;;;5024187;28;45583;-68
2021/12/24 07:26:26;;;;;;;;;24.33;15.33;;;;;;;;5025114;28;45590;-68
2021/12/24 07:28:51;;;;;;;;;22.67;18.67;;;;;;;;5024404;28;46650;-67
2021/12/24 07:31:16;;;;;;;;;18.00;17.67;;;;;;;;5025256;28;45456;-67
2021/12/24 07:33:42;;;;;;;;;19.00;19.00;;;;;;;;5024669;28;45535;-67
2021/12/24 07:36:07;;;;;;;;;15.00;15.00;;;;;;;;5025838;28;45300;-67
2021/12/24 07:38:32;;;;;;;;;16.33;16.00;;;;;;;;5001354;28;48171;-69
2021/12/24 07:40:58;;;;;;;;;21.33;19.00;;;;;;;;5020642;28;45421;-68
2021/12/24 07:43:23;;;;;;;;;24.33;24.33;;;;;;;;5005211;28;45453;-68
2021/12/24 07:45:50;;;;;;;;;20.00;18.33;;;;;;;;5025337;28;45516;-68
2021/12/24 07:48:26;;;;;;;;;16.67;16.33;;;;;;;;5024114;28;45548;-68
2021/12/24 07:53:17;;;;;;;;;18.00;16.33;;;;;;;;5024029;28;45525;-68
2021/12/24 07:55:43;;;;;;;;;22.00;18.00;;;;;;;;5023961;28;45438;-68
2021/12/24 07:58:08;;;;;;;;;21.33;20.67;;;;;;;;5023636;28;46292;-68
2021/12/24 08:00:35;;;;;;;;;19.67;16.33;;;;;;;;5024693;28;45337;-68
2021/12/24 08:03:02;;;;;;;;;14.33;14.33;;;;;;;;5024306;28;45308;-68
2021/12/24 08:05:27;;;;;;;;;20.00;14.67;;;;;;;;5025114;28;45503;-68
2021/12/24 08:07:54;;;;;;;;;16.00;14.67;;;;;;;;5006217;28;46310;-68
2021/12/24 08:10:20;;;;;;;;;18.00;16.00;;;;;;;;5022811;28;45624;-69
2021/12/24 08:12:45;;;;;;;;;15.33;14.67;;;;;;;;5023535;28;45351;-68
2021/12/24 08:15:11;;;;;;;;;20.00;14.67;;;;;;;;5024979;28;45410;-68
2021/12/24 08:17:36;;;;;;;;;15.67;14.67;;;;;;;;5023564;28;46312;-69
2021/12/24 08:20:02;;;;;;;;;16.33;10.67;;;;;;;;5024323;28;45664;-69
2021/12/24 08:22:28;;;;;;;;;17.00;14.33;;;;;;;;5022914;28;45458;-68
2021/12/24 08:24:53;;;;;;;;;14.33;12.33;;;;;;;;5024474;28;45444;-68
2021/12/24 08:27:19;;;;;;;;;15.00;11.00;;;;;;;;5023231;28;45383;-68
2021/12/24 08:29:44;;;;;;;;;11.67;10.33;;;;;;;;5024023;28;45361;-68
2021/12/24 08:32:10;;;;;;;;;17.33;17.33;;;;;;;;5023700;28;45332;-68
2021/12/24 08:34:35;;;;;;;;;15.67;12.67;;;;;;;;5006445;28;45290;-66
2021/12/24 08:37:00;;;;;;;;;18.33;16.67;;;;;;;;5022720;28;47784;-68
2021/12/24 08:39:26;;;;;;;;;18.00;13.67;;;;;;;;5023078;28;45376;-67
2021/12/24 08:41:54;;;;;;;;;10.33;10.33;;;;;;;;5024292;28;45255;-67
2021/12/24 08:44:20;;;;;;;;;21.33;20.67;;;;;;;;5023266;28;45395;-67
2021/12/24 08:46:45;;;;;;;;;15.00;14.33;;;;;;;;5022671;28;45474;-67
2021/12/24 08:49:10;;;;;;;;;12.67;12.67;;;;;;;;4997463;28;45424;-67
2021/12/24 08:51:35;;;;;;;;;11.00;11.00;;;;;;;;5024106;28;45429;-67
2021/12/24 08:54:01;;;;;;;;;13.33;8.33;;;;;;;;5005649;28;45724;-67
2021/12/24 08:56:26;;;;;;;;;14.00;14.00;;;;;;;;5005592;28;47744;-68
2021/12/24 08:58:51;;;;;;;;;16.00;11.33;;;;;;;;5021639;28;45500;-67
2021/12/24 09:01:16;;;;;;;;;15.67;15.00;;;;;;;;5024168;28;45440;-68
2021/12/24 09:03:42;;;;;;;;;12.00;12.00;;;;;;;;5005368;28;45607;-68
2021/12/24 09:06:07;;;;;;;;;7.00;7.00;;;;;;;;5023773;28;46563;-67
2021/12/24 09:08:32;;;;;;;;;12.67;11.67;;;;;;;;5004881;28;46113;-67
2021/12/24 09:10:57;;;;;;;;;19.33;17.67;;;;;;;;5023544;28;45268;-67
2021/12/24 09:13:23;;;;;;;;;15.67;13.67;;;;;;;;5004412;28;45470;-68
2021/12/24 09:15:48;;;;;;;;;13.33;10.67;;;;;;;;5023620;28;45341;-67
2021/12/24 09:18:13;;;;;;;;;13.00;11.67;;;;;;;;5022469;28;45376;-68
2021/12/24 09:20:42;;;;;;;;;12.00;12.00;;;;;;;;5023770;28;45633;-68
2021/12/24 09:23:09;;;;;;;;;12.00;11.33;;;;;;;;5020834;28;45334;-67
2021/12/24 09:25:34;;;;;;;;;13.33;13.33;;;;;;;;5023021;28;46226;-68
2021/12/24 09:28:00;;;;;;;;;17.00;12.67;;;;;;;;5020371;28;45995;-68
2021/12/24 09:30:26;;;;;;;;;20.00;15.67;;;;;;;;5023094;28;45513;-68
2021/12/24 09:32:51;;;;;;;;;16.00;14.67;;;;;;;;5022775;28;45471;-68
2021/12/24 09:35:17;;;;;;;;;21.67;15.00;;;;;;;;5021682;28;46698;-68
2021/12/24 09:37:42;;;;;;;;;15.33;11.00;;;;;;;;5022290;28;45233;-68
2021/12/24 09:40:09;;;;;;;;;13.33;13.33;;;;;;;;5023198;28;45383;-68
2021/12/24 09:42:34;;;;;;;;;12.33;12.33;;;;;;;;5022192;28;45438;-68
2021/12/24 09:45:00;;;;;;;;;16.33;13.33;;;;;;;;5022740;28;45308;-68
2021/12/24 09:47:25;;;;;;;;;14.33;14.33;;;;;;;;5020909;28;45411;-68
2021/12/24 09:49:51;;;;;;;;;13.33;13.00;;;;;;;;5005184;28;45492;-68
2021/12/24 09:52:17;;;;;;;;;21.67;15.67;;;;;;;;5022563;28;45169;-67
2021/12/24 09:54:43;;;;;;;;;18.00;16.67;;;;;;;;5022588;28;45578;-67
2021/12/24 09:57:09;;;;;;;;;16.00;14.00;;;;;;;;5020670;28;45473;-67
2021/12/24 09:59:36;;;;;;;;;15.67;13.33;;;;;;;;5021233;28;45451;-68
2021/12/24 10:02:01;;;;;;;;;21.33;16.67;;;;;;;;5023452;28;45403;-68
2021/12/24 10:04:28;;;;;;;;;14.33;12.00;;;;;;;;5021492;28;45854;-68
2021/12/24 10:07:03;;;;;;;;;15.67;15.67;;;;;;;;5021584;28;45376;-68
2021/12/24 10:09:35;;;;;;;;;15.00;13.00;;;;;;;;4998564;28;45373;-68
2021/12/24 10:12:05;;;;;;;;;16.33;13.67;;;;;;;;5023018;28;45410;-68
2021/12/24 10:14:34;;;;;;;;;15.33;14.67;;;;;;;;5022070;28;45265;-68
2021/12/24 10:17:00;;;;;;;;;16.33;14.00;;;;;;;;5021129;28;45764;-68
2021/12/24 10:19:25;;;;;;;;;13.33;11.33;;;;;;;;5021338;28;45569;-68
2021/12/24 10:22:01;;;;;;;;;18.33;13.67;;;;;;;;5022953;28;45398;-68
2021/12/24 10:24:26;;;;;;;;;14.00;13.33;;;;;;;;5014348;28;47147;-68
2021/12/24 10:26:57;;;;;;;;;16.33;14.67;;;;;;;;5022143;28;45408;-68
2021/12/24 10:29:34;;;;;;;;;16.67;11.67;;;;;;;;5021316;28;45370;-68
2021/12/24 10:32:08;;;;;;;;;16.33;14.00;;;;;;;;5022994;28;45391;-68
2021/12/24 10:34:34;;;;;;;;;15.33;11.67;;;;;;;;5024114;28;45443;-68
2021/12/24 10:37:03;;;;;;;;;10.00;9.00;;;;;;;;5024831;28;45452;-68
2021/12/24 10:39:46;;;;;;;;;15.33;12.67;;;;;;;;4998038;28;45523;-68
2021/12/24 10:42:14;;;;;;;;;11.33;10.00;;;;;;;;5025285;28;45611;-68
2021/12/24 10:44:40;;;;;;;;;17.00;13.33;;;;;;;;5025362;28;46308;-68
2021/12/24 10:47:07;;;;;;;;;18.33;13.67;;;;;;;;5025002;28;45307;-68
2021/12/24 10:49:49;;;;;;;;;17.00;13.00;;;;;;;;5025233;28;45407;-67
2021/12/24 10:53:13;;;;;;;;;17.00;10.67;;;;;;;;5025625;28;45272;-68
2021/12/24 10:54:59;;;;;;;;;17.33;13.33;;;;;;;;5014496;28;45939;-68
2021/12/24 10:57:26;;;;;;;;;10.33;10.33;;;;;;;;5024562;28;45316;-68
2021/12/24 10:59:54;;;;;;;;;19.67;13.00;;;;;;;;5024179;28;45426;-68
2021/12/24 11:02:20;;;;;;;;;18.33;17.67;;;;;;;;5025304;28;45396;-68
2021/12/24 11:04:45;;;;;;;;;17.00;16.00;;;;;;;;5023018;28;45386;-68
2021/12/24 11:07:29;;;;;;;;;14.00;14.00;;;;;;;;5024758;28;45313;-68
2021/12/24 11:10:12;;;;;;;;;15.00;12.00;;;;;;;;5021120;28;45445;-67
2021/12/24 11:12:38;;;;;;;;;15.00;14.00;;;;;;;;5006800;28;45311;-68
2021/12/24 11:15:30;;;;;;;;;16.33;16.00;;;;;;;;5024938;28;45299;-68
2021/12/24 11:17:56;;;;;;;;;19.33;18.33;;;;;;;;5020946;28;45291;-68
2021/12/24 11:20:22;;;;;;;;;12.00;11.00;;;;;;;;5025055;28;45439;-68
2021/12/24 11:22:53;;;;;;;;;16.33;14.00;;;;;;;;5005569;28;45357;-68
2021/12/24 11:25:19;;;;;;;;;19.33;17.67;;;;;;;;5015914;28;46348;-68
2021/12/24 11:27:44;;;;;;;;;20.00;18.00;;;;;;;;5023720;28;45346;-68
2021/12/24 11:30:10;;;;;;;;;9.67;9.67;;;;;;;;5025275;28;45317;-68
2021/12/24 11:32:35;;;;;;;;;20.33;16.33;;;;;;;;5024678;28;45224;-68
2021/12/24 11:35:01;;;;;;;;;26.67;21.67;;;;;;;;5024747;28;45418;-68
2021/12/24 11:37:27;;;;;;;;;18.33;14.67;;;;;;;;5021959;28;45344;-68
2021/12/24 11:39:52;;;;;;;;;17.00;17.00;;;;;;;;5024901;28;45237;-68
2021/12/24 11:42:18;;;;;;;;;17.67;15.33;;;;;;;;5024358;28;45244;-68
2021/12/24 11:44:44;;;;;;;;;17.00;15.00;;;;;;;;5024232;28;46079;-68
2021/12/24 11:47:09;;;;;;;;;16.67;16.67;;;;;;;;5023588;28;45299;-68
2021/12/24 11:49:35;;;;;;;;;21.00;19.00;;;;;;;;5024905;28;45304;-69
2021/12/24 11:52:00;;;;;;;;;19.67;17.33;;;;;;;;5025474;28;45342;-68
2021/12/24 11:54:25;;;;;;;;;11.33;11.33;;;;;;;;5023833;28;45881;-67
2021/12/24 11:56:53;;;;;;;;;16.00;15.67;;;;;;;;5024750;28;45403;-70
2021/12/24 11:59:35;;;;;;;;;15.00;13.00;;;;;;;;5024065;28;45338;-68
2021/12/24 12:02:01;;;;;;;;;11.00;11.00;;;;;;;;5025093;28;45261;-68
2021/12/24 12:04:26;;;;;;;;;20.33;13.67;;;;;;;;5023416;28;45463;-68
2021/12/24 12:06:51;;;;;;;;;17.67;15.33;;;;;;;;5024625;28;45469;-68
2021/12/24 12:09:16;;;;;;;;;15.00;13.67;;;;;;;;5000183;28;45271;-68
2021/12/24 12:11:43;;;;;;;;;14.33;13.33;;;;;;;;5006926;28;45331;-68
2021/12/24 12:14:14;;;;;;;;;9.67;9.67;;;;;;;;5000932;28;48284;-68
2021/12/24 12:16:39;;;;;;;;;21.00;18.33;;;;;;;;5020736;28;45327;-68
2021/12/24 12:19:13;;;;;;;;;59.00;48.00;;;;;;;;5023355;28;45431;-68
2021/12/24 12:21:43;;;;;;;;;23.00;20.33;;;;;;;;5021639;28;45351;-68
2021/12/24 12:26:41;;;;;;;;;18.33;18.00;;;;;;;;5023578;28;45367;-68
2021/12/24 12:29:17;;;;;;;;;19.33;17.33;;;;;;;;5023199;28;45377;-68
2021/12/24 12:31:42;;;;;;;;;26.33;23.00;;;;;;;;5011597;28;45288;-68
2021/12/24 12:34:26;;;;;;;;;17.00;15.67;;;;;;;;4996032;28;48232;-68
2021/12/24 12:36:52;;;;;;;;;24.00;20.00;;;;;;;;5006305;28;45415;-68
2021/12/24 12:39:27;;;;;;;;;19.67;19.67;;;;;;;;5005612;28;45449;-67
2021/12/24 12:41:52;;;;;;;;;23.67;20.00;;;;;;;;5024320;28;45395;-68
2021/12/24 12:44:19;;;;;;;;;29.33;23.67;;;;;;;;5022864;28;45957;-67
2021/12/24 12:46:47;;;;;;;;;20.00;18.67;;;;;;;;5022713;28;45419;-68
2021/12/24 12:49:19;;;;;;;;;24.33;21.67;;;;;;;;5023218;28;45241;-68
2021/12/24 12:51:47;;;;;;;;;22.33;17.33;;;;;;;;4998156;28;45333;-68
2021/12/24 12:54:29;;;;;;;;;25.67;21.00;;;;;;;;4999213;28;47506;-68
2021/12/24 12:57:14;;;;;;;;;23.00;20.00;;;;;;;;5023516;28;45154;-68
2021/12/24 13:00:00;;;;;;;;;20.33;20.33;;;;;;;;5021741;28;45195;-67
2021/12/24 13:02:45;;;;;;;;;23.67;20.33;;;;;;;;4998271;28;45866;-67
2021/12/24 13:05:11;;;;;;;;;24.33;20.00;;;;;;;;5019600;28;45784;-68
2021/12/24 13:07:36;;;;;;;;;20.67;20.00;;;;;;;;5004642;28;45883;-68
2021/12/24 13:10:03;;;;;;;;;23.67;20.00;;;;;;;;5004122;28;45227;-68
2021/12/24 13:12:28;;;;;;;;;17.00;16.00;;;;;;;;5023143;28;45467;-68
2021/12/24 13:14:58;;;;;;;;;22.00;22.00;;;;;;;;5023028;28;46691;-67
2021/12/24 13:17:30;;;;;;;;;19.00;17.67;;;;;;;;5004866;28;46023;-68
2021/12/24 13:20:08;;;;;;;;;22.67;19.00;;;;;;;;5004731;28;45453;-68
2021/12/24 13:22:36;;;;;;;;;22.33;16.00;;;;;;;;5023018;28;45261;-68
2021/12/24 13:25:10;;;;;;;;;20.33;18.00;;;;;;;;5021611;28;48321;-68
2021/12/24 13:27:39;;;;;;;;;20.00;16.67;;;;;;;;5022077;28;45344;-67
2021/12/24 13:30:04;;;;;;;;;18.00;17.00;;;;;;;;5023190;28;45355;-68
2021/12/24 13:32:29;;;;;;;;;22.00;18.00;;;;;;;;5004369;28;46050;-68
2021/12/24 13:34:55;;;;;;;;;13.00;13.00;;;;;;;;5022910;28;46230;-68
2021/12/24 13:37:20;;;;;;;;;21.67;19.33;;;;;;;;5021096;28;46090;-67
2021/12/24 13:39:47;;;;;;;;;19.00;14.00;;;;;;;;5023034;28;45442;-67
2021/12/24 13:42:12;;;;;;;;;22.67;19.33;;;;;;;;5021176;28;45475;-67
2021/12/24 13:44:41;;;;;;;;;16.67;15.33;;;;;;;;5022831;28;46448;-67
2021/12/24 13:47:10;;;;;;;;;16.33;14.00;;;;;;;;5021412;28;45548;-67
2021/12/24 13:54:50;;;;;;;;;20.33;16.33;;;;;;;;5016157;28;45905;-67
2021/12/24 13:57:16;;;;;;;;;26.00;19.67;;;;;;;;5013592;28;45297;-67
2021/12/24 13:59:42;;;;;;;;;26.67;25.67;;;;;;;;5001614;28;45230;-68
2021/12/24 14:02:08;;;;;;;;;24.00;21.00;;;;;;;;5023233;28;45278;-67
2021/12/24 14:04:33;;;;;;;;;17.33;15.33;;;;;;;;5010240;28;47271;-68
2021/12/24 14:06:59;;;;;;;;;18.33;16.67;;;;;;;;5022849;28;45539;-68
2021/12/24 14:09:33;;;;;;;;;20.67;17.67;;;;;;;;5021301;28;45551;-67
2021/12/24 14:11:59;;;;;;;;;22.67;18.00;;;;;;;;5021521;28;45515;-68
2021/12/24 14:14:37;;;;;;;;;22.33;17.67;;;;;;;;5021108;28;46256;-67
2021/12/24 14:20:00;;;;;;;;;28.67;19.33;;;;;;;;5022378;28;45429;-67
2021/12/24 14:22:29;;;;;;;;;20.00;18.00;;;;;;;;5020942;28;45520;-68
2021/12/24 14:25:01;;;;;;;;;18.67;17.00;;;;;;;;5020791;28;48096;-68
2021/12/24 14:27:28;;;;;;;;;23.00;22.67;;;;;;;;5020998;28;45386;-68
2021/12/24 14:29:56;;;;;;;;;20.33;19.33;;;;;;;;5020512;28;45525;-67
2021/12/24 14:32:29;;;;;;;;;20.33;16.67;;;;;;;;5004275;28;45432;-68
2021/12/24 14:34:55;;;;;;;;;14.67;13.00;;;;;;;;5014174;28;46176;-68
2021/12/24 14:37:22;;;;;;;;;30.00;27.67;;;;;;;;5013836;28;45557;-69
2021/12/24 14:39:49;;;;;;;;;21.00;17.33;;;;;;;;5022373;28;45332;-68
2021/12/24 14:42:18;;;;;;;;;20.00;16.33;;;;;;;;5019632;28;45395;-68
2021/12/24 14:44:44;;;;;;;;;14.00;12.67;;;;;;;;5016184;28;47493;-68
2021/12/24 14:47:11;;;;;;;;;19.00;14.67;;;;;;;;5014322;28;45451;-68
2021/12/24 14:49:37;;;;;;;;;14.00;14.00;;;;;;;;5022011;28;45359;-68
2021/12/24 14:52:22;;;;;;;;;20.67;17.00;;;;;;;;5022785;28;45546;-68
2021/12/24 14:55:06;;;;;;;;;26.67;20.00;;;;;;;;5000610;28;47369;-68
2021/12/24 14:57:32;;;;;;;;;26.00;21.67;;;;;;;;5019053;28;45478;-68
2021/12/24 15:00:04;;;;;;;;;25.00;20.00;;;;;;;;5022078;28;45412;-68
2021/12/24 15:02:29;;;;;;;;;23.67;22.00;;;;;;;;5021748;28;45370;-67
2021/12/24 15:04:55;;;;;;;;;28.33;25.33;;;;;;;;5003810;28;48155;-68
2021/12/24 15:07:28;;;;;;;;;27.00;24.33;;;;;;;;5021344;28;45530;-68
2021/12/24 15:10:07;;;;;;;;;21.33;21.33;;;;;;;;5020344;28;45448;-67
2021/12/24 15:12:32;;;;;;;;;27.00;23.00;;;;;;;;5019978;28;45766;-68
2021/12/24 15:14:58;;;;;;;;;37.00;30.67;;;;;;;;5021757;28;45734;-68
2021/12/24 15:17:35;;;;;;;;;29.00;26.67;;;;;;;;5021188;28;45474;-68
2021/12/24 15:20:01;;;;;;;;;20.00;20.00;;;;;;;;5021373;28;45423;-68
2021/12/24 15:22:26;;;;;;;;;27.00;26.33;;;;;;;;5006984;28;45377;-68
2021/12/24 15:24:51;;;;;;;;;30.67;27.00;;;;;;;;5025187;28;46787;-67
2021/12/24 15:27:16;;;;;;;;;34.67;32.33;;;;;;;;5024278;28;45306;-68
2021/12/24 15:29:42;;;;;;;;;21.33;20.00;;;;;;;;5023318;28;45449;-68
2021/12/24 15:32:08;;;;;;;;;36.00;32.67;;;;;;;;5024591;28;45568;-68
2021/12/24 15:34:33;;;;;;;;;37.00;30.00;;;;;;;;5024091;28;45449;-67
2021/12/24 15:36:58;;;;;;;;;33.33;29.00;;;;;;;;5025439;28;45448;-68
2021/12/24 15:39:23;;;;;;;;;26.33;25.00;;;;;;;;5001328;28;45305;-68
2021/12/24 15:41:49;;;;;;;;;30.33;29.67;;;;;;;;5025226;28;45774;-68
2021/12/24 15:44:16;;;;;;;;;43.75;36.25;;;;;;;;5024151;28;48083;-68
2021/12/24 15:46:41;;;;;;;;;28.67;26.67;;;;;;;;5025088;28;45466;-68
2021/12/24 15:49:07;;;;;;;;;32.67;23.33;;;;;;;;5023701;28;45362;-68
2021/12/24 15:51:32;;;;;;;;;24.33;24.33;;;;;;;;5025157;28;45694;-67
2021/12/24 15:53:57;;;;;;;;;31.33;30.33;;;;;;;;5023688;28;46212;-68
2021/12/24 15:56:22;;;;;;;;;47.50;40.50;;;;;;;;5024569;28;45390;-68
2021/12/24 15:58:47;;;;;;;;;27.33;20.00;;;;;;;;5024011;28;45484;-67